Time;durP1;ratioP1;P1;durP2;ratioP2;P2;SDS_P1;SDS_P2;PMS_P1;PMS_P2;Temp;Humidity;BMP_temperature;BMP_pressure;BME280_temperature;BME280_humidity;BME280_pressure;Samples;Min_cycle;Max_cycle;Signal;HPM_P1;HPM_P2
2023/01/12 00:02:02;;;;;;;;;;;18.10;66.40;;;;;;5053615;28;816;-71
2023/01/12 00:04:29;;;;;;;;;;;18.10;66.40;;;;;;5052806;28;1238;-71
2023/01/12 00:06:55;;;;;;;;;;;18.10;66.40;;;;;;5049068;28;1976;-71
2023/01/12 00:09:21;;;;;;;;;;;18.00;66.30;;;;;;5054188;28;812;-70
2023/01/12 00:11:46;;;;;;;;;;;18.10;66.40;;;;;;5055793;28;835;-70
2023/01/12 00:14:12;;;;;;;;;;;18.10;66.40;;;;;;5055417;28;792;-70
2023/01/12 00:16:37;;;;;;;;;;;18.00;66.40;;;;;;5053149;28;1666;-70
2023/01/12 00:19:16;;;;;;;;;;;18.10;66.50;;;;;;5054217;28;880;-69
2023/01/12 00:22:29;;;;;;;;;;;18.10;66.50;;;;;;5050009;28;1375;-69
2023/01/12 00:24:32;;;;;;;;;;;18.00;66.40;;;;;;5045589;28;1150;-70
2023/01/12 00:26:58;;;;;;;;;;;18.10;66.50;;;;;;5048003;28;1910;-70
2023/01/12 00:29:24;;;;;;;;;;;18.00;66.50;;;;;;5045919;28;872;-69
2023/01/12 00:31:50;;;;;;;;;;;18.10;66.50;;;;;;5046828;28;865;-70
2023/01/12 00:34:15;;;;;;;;;;;18.00;66.50;;;;;;5048840;28;1486;-70
2023/01/12 00:36:41;;;;;;;;;;;18.00;66.50;;;;;;5053243;28;1200;-69
2023/01/12 00:39:06;;;;;;;;;;;18.00;66.50;;;;;;5045687;28;860;-69
2023/01/12 00:47:00;;;;;;;;;;;18.00;66.50;;;;;;5052978;28;1905;-69
2023/01/12 00:49:26;;;;;;;;;;;18.00;66.50;;;;;;5052325;28;1046;-69
2023/01/12 00:51:51;;;;;;;;;;;18.00;66.50;;;;;;5053345;28;885;-69
2023/01/12 00:54:17;;;;;;;;;;;18.00;66.60;;;;;;5053431;28;874;-69
2023/01/12 00:56:42;;;;;;;;;;;18.00;66.60;;;;;;5052451;28;1240;-71
2023/01/12 00:59:08;;;;;;;;;;;18.00;66.60;;;;;;5055879;28;887;-67
2023/01/12 01:01:33;;;;;;;;;;;18.00;66.70;;;;;;5051419;28;922;-69
2023/01/12 01:03:59;;;;;;;;;;;18.00;66.60;;;;;;5048889;28;1031;-70
2023/01/12 01:06:24;;;;;;;;;;;18.00;66.60;;;;;;5046866;28;1934;-69
2023/01/12 01:08:50;;;;;;;;;;;18.00;66.70;;;;;;5051625;28;1068;-69
2023/01/12 01:11:15;;;;;;;;;;;18.00;66.70;;;;;;5052847;28;926;-69
2023/01/12 01:13:42;;;;;;;;;;;18.00;66.70;;;;;;5052205;28;850;-67
2023/01/12 01:16:08;;;;;;;;;;;18.00;66.70;;;;;;5051541;28;1723;-68
2023/01/12 01:18:34;;;;;;;;;;;18.00;66.70;;;;;;5048717;28;907;-70
2023/01/12 01:20:59;;;;;;;;;;;18.00;66.70;;;;;;5046403;28;1084;-69
2023/01/12 01:23:25;;;;;;;;;;;17.90;66.70;;;;;;5056267;28;906;-70
2023/01/12 01:25:51;;;;;;;;;;;18.00;66.80;;;;;;5052552;28;1902;-70
2023/01/12 01:28:16;;;;;;;;;;;18.00;66.70;;;;;;5052883;28;1025;-69
2023/01/12 01:30:42;;;;;;;;;;;17.90;66.70;;;;;;5052709;28;871;-70
2023/01/12 01:33:08;;;;;;;;;;;18.00;66.80;;;;;;5049671;28;837;-70
2023/01/12 01:35:34;;;;;;;;;;;18.00;67.50;;;;;;5051772;28;1290;-70
2023/01/12 01:38:00;;;;;;;;;;;17.90;66.70;;;;;;5045876;28;818;-70
2023/01/12 01:40:25;;;;;;;;;;;17.90;66.70;;;;;;5051398;28;879;-70
2023/01/12 01:42:50;;;;;;;;;;;17.90;66.70;;;;;;5051736;28;871;-70
2023/01/12 01:45:16;;;;;;;;;;;17.90;66.70;;;;;;5054235;28;1298;-70
2023/01/12 01:47:43;;;;;;;;;;;18.00;66.80;;;;;;5053910;28;1953;-70
2023/01/12 01:50:28;;;;;;;;;;;17.90;66.70;;;;;;5050469;28;874;-70
2023/01/12 01:53:13;;;;;;;;;;;17.90;66.80;;;;;;5051109;28;1038;-70
2023/01/12 01:55:41;;;;;;;;;;;17.90;66.80;;;;;;5044264;28;1370;-70
2023/01/12 01:58:08;;;;;;;;;;;18.00;66.80;;;;;;5050993;28;879;-70
2023/01/12 02:00:35;;;;;;;;;;;17.90;66.80;;;;;;5050674;28;1218;-70
2023/01/12 02:03:00;;;;;;;;;;;17.90;66.80;;;;;;5048192;28;1009;-69
2023/01/12 02:05:26;;;;;;;;;;;17.90;66.80;;;;;;5044089;28;1350;-70
2023/01/12 02:07:51;;;;;;;;;;;17.90;66.80;;;;;;5056879;28;1906;-69
2023/01/12 02:10:17;;;;;;;;;;;17.90;66.80;;;;;;5058818;28;1089;-69
2023/01/12 02:18:26;;;;;;;;;;;17.90;66.80;;;;;;5052267;28;812;-69
2023/01/12 02:21:04;;;;;;;;;;;17.90;66.80;;;;;;5047102;28;844;-69
2023/01/12 02:23:48;;;;;;;;;;;17.90;66.80;;;;;;5035436;28;1193;-69
2023/01/12 02:26:23;;;;;;;;;;;17.90;66.90;;;;;;5053762;28;1906;-69
2023/01/12 02:28:48;;;;;;;;;;;17.90;66.90;;;;;;5054323;28;1042;-69
2023/01/12 02:31:23;;;;;;;;;;;17.90;66.90;;;;;;5054809;28;907;-70
2023/01/12 02:34:08;;;;;;;;;;;17.90;66.90;;;;;;5048823;28;863;-69
2023/01/12 02:36:39;;;;;;;;;;;17.90;66.90;;;;;;5054194;28;1450;-70
2023/01/12 02:39:17;;;;;;;;;;;17.90;66.90;;;;;;5055893;28;958;-68
2023/01/12 02:44:29;;;;;;;;;;;17.90;66.90;;;;;;5053810;28;767;-68
2023/01/12 02:46:54;;;;;;;;;;;17.90;66.90;;;;;;5056053;28;1894;-69
2023/01/12 02:49:20;;;;;;;;;;;17.90;67.00;;;;;;5051935;28;1041;-68
2023/01/12 02:51:48;;;;;;;;;;;17.90;66.90;;;;;;5046959;28;848;-68
2023/01/12 02:54:14;;;;;;;;;;;17.90;67.00;;;;;;5045974;28;871;-69
2023/01/12 02:56:44;;;;;;;;;;;17.90;67.00;;;;;;5048652;28;1334;-69
2023/01/12 02:59:13;;;;;;;;;;;17.90;67.00;;;;;;5023571;28;1079;-69
2023/01/12 03:01:38;;;;;;;;;;;17.90;67.00;;;;;;5049452;28;1271;-69
2023/01/12 03:04:04;;;;;;;;;;;17.90;67.00;;;;;;5050554;28;1379;-69
2023/01/12 03:06:53;;;;;;;;;;;17.90;67.00;;;;;;5051270;28;1906;-69
2023/01/12 03:09:19;;;;;;;;;;;17.90;67.00;;;;;;5062814;28;1167;-69
2023/01/12 03:11:44;;;;;;;;;;;17.90;67.00;;;;;;5049602;28;882;-69
2023/01/12 03:14:10;;;;;;;;;;;17.80;66.90;;;;;;5052669;28;867;-69
2023/01/12 03:16:35;;;;;;;;;;;17.90;67.00;;;;;;5053546;28;1373;-69
2023/01/12 03:19:08;;;;;;;;;;;17.80;67.00;;;;;;5048902;28;1061;-72
2023/01/12 03:21:35;;;;;;;;;;;17.90;67.00;;;;;;5052898;28;852;-70
2023/01/12 03:24:05;;;;;;;;;;;17.90;67.00;;;;;;5052006;28;1322;-69
2023/01/12 03:26:31;;;;;;;;;;;17.80;67.00;;;;;;5045019;28;2077;-71
2023/01/12 03:29:17;;;;;;;;;;;17.90;67.00;;;;;;5053517;28;1454;-70
2023/01/12 03:31:43;;;;;;;;;;;17.90;67.10;;;;;;5052502;28;1598;-71
2023/01/12 03:34:08;;;;;;;;;;;17.90;67.00;;;;;;5051329;28;868;-69
2023/01/12 03:36:53;;;;;;;;;;;17.80;67.00;;;;;;5053404;28;1582;-70
2023/01/12 03:39:25;;;;;;;;;;;17.80;67.00;;;;;;5054749;28;850;-71
2023/01/12 03:42:14;;;;;;;;;;;17.80;67.00;;;;;;5052666;28;844;-70
2023/01/12 03:44:49;;;;;;;;;;;17.80;67.00;;;;;;5053236;28;1094;-71
2023/01/12 03:47:16;;;;;;;;;;;17.80;67.00;;;;;;5053206;28;1926;-72
2023/01/12 03:49:43;;;;;;;;;;;17.80;67.00;;;;;;5053988;28;861;-72
2023/01/12 03:52:09;;;;;;;;;;;17.80;67.00;;;;;;5049409;28;1085;-69
2023/01/12 03:54:34;;;;;;;;;;;17.80;67.00;;;;;;5049235;28;835;-69
2023/01/12 03:56:59;;;;;;;;;;;17.80;67.10;;;;;;5049354;28;1282;-69
2023/01/12 03:59:25;;;;;;;;;;;17.80;67.00;;;;;;5048954;28;990;-69
2023/01/12 04:01:51;;;;;;;;;;;17.80;67.00;;;;;;5046473;28;940;-69
2023/01/12 04:04:17;;;;;;;;;;;17.80;67.10;;;;;;5045876;28;996;-69
2023/01/12 04:06:42;;;;;;;;;;;17.80;67.10;;;;;;5040743;28;1909;-69
2023/01/12 04:09:08;;;;;;;;;;;17.80;67.10;;;;;;5055039;28;804;-69
2023/01/12 04:14:17;;;;;;;;;;;17.80;67.10;;;;;;5053820;28;884;-70
2023/01/12 04:16:43;;;;;;;;;;;17.80;67.10;;;;;;5054584;28;1345;-69
2023/01/12 04:19:08;;;;;;;;;;;17.80;67.10;;;;;;5056100;28;800;-69
2023/01/12 04:24:17;;;;;;;;;;;17.80;67.10;;;;;;5048079;28;797;-69
2023/01/12 04:26:43;;;;;;;;;;;17.80;67.10;;;;;;5054646;28;1910;-69
2023/01/12 04:29:08;;;;;;;;;;;17.80;67.10;;;;;;5051537;28;796;-69
2023/01/12 04:31:34;;;;;;;;;;;17.80;67.10;;;;;;5052931;28;1496;-69
2023/01/12 04:33:59;;;;;;;;;;;17.80;67.20;;;;;;5052332;28;1493;-69
2023/01/12 04:36:25;;;;;;;;;;;17.80;67.10;;;;;;5052086;28;1305;-69
2023/01/12 04:38:50;;;;;;;;;;;17.80;67.20;;;;;;5052739;28;791;-69
2023/01/12 04:41:16;;;;;;;;;;;17.80;67.20;;;;;;5051904;28;906;-69
2023/01/12 04:43:41;;;;;;;;;;;17.80;67.10;;;;;;5052901;28;854;-69
2023/01/12 04:46:07;;;;;;;;;;;17.80;67.20;;;;;;5052942;28;1960;-69
2023/01/12 04:48:33;;;;;;;;;;;17.80;67.20;;;;;;5052541;28;848;-69
2023/01/12 04:50:59;;;;;;;;;;;17.80;67.20;;;;;;5049174;28;915;-69
2023/01/12 04:53:25;;;;;;;;;;;17.80;67.20;;;;;;5051672;28;915;-69
2023/01/12 04:55:50;;;;;;;;;;;17.80;67.20;;;;;;5047147;28;1956;-68
2023/01/12 04:58:15;;;;;;;;;;;17.80;67.20;;;;;;5047139;28;1701;-68
2023/01/12 05:00:41;;;;;;;;;;;17.80;67.20;;;;;;5050701;28;1227;-68
2023/01/12 05:03:08;;;;;;;;;;;17.80;67.20;;;;;;5052974;28;815;-71
2023/01/12 05:05:34;;;;;;;;;;;17.80;67.20;;;;;;5047578;28;1648;-71
2023/01/12 05:10:48;;;;;;;;;;;17.80;67.10;;;;;;5051758;28;807;-71
2023/01/12 05:13:13;;;;;;;;;;;17.80;67.10;;;;;;5031081;28;1690;-71
2023/01/12 05:15:39;;;;;;;;;;;17.90;67.00;;;;;;5050798;28;1278;-71
2023/01/12 05:18:04;;;;;;;;;;;17.90;66.90;;;;;;5051609;28;899;-71
2023/01/12 05:20:30;;;;;;;;;;;17.90;66.80;;;;;;5050761;28;860;-72
2023/01/12 05:22:55;;;;;;;;;;;18.00;66.70;;;;;;5052211;28;1279;-71
2023/01/12 05:25:21;;;;;;;;;;;18.00;66.50;;;;;;5050989;28;1833;-70
2023/01/12 05:27:46;;;;;;;;;;;18.00;66.30;;;;;;5052506;28;1898;-70
2023/01/12 05:30:12;;;;;;;;;;;18.10;66.20;;;;;;5052319;28;809;-70
2023/01/12 05:32:37;;;;;;;;;;;18.10;66.10;;;;;;5052258;28;981;-70
2023/01/12 05:35:06;;;;;;;;;;;18.20;66.00;;;;;;5050569;28;1108;-70
2023/01/12 05:37:32;;;;;;;;;;;18.20;65.90;;;;;;5052584;28;787;-70
2023/01/12 05:39:57;;;;;;;;;;;18.20;65.80;;;;;;5053705;28;890;-70
2023/01/12 05:45:07;;;;;;;;;;;18.30;65.60;;;;;;5055408;28;1311;-70
2023/01/12 05:47:33;;;;;;;;;;;18.30;65.50;;;;;;5055422;28;1918;-70
2023/01/12 05:49:58;;;;;;;;;;;18.30;65.40;;;;;;5056705;28;1662;-70
2023/01/12 05:52:23;;;;;;;;;;;18.30;65.30;;;;;;5055565;28;839;-70
2023/01/12 05:54:49;;;;;;;;;;;18.30;65.20;;;;;;5051314;28;886;-71
2023/01/12 05:57:14;;;;;;;;;;;18.40;65.20;;;;;;5046425;28;2227;-71
2023/01/12 05:59:40;;;;;;;;;;;18.40;65.20;;;;;;5042152;28;798;-68
2023/01/12 06:02:05;;;;;;;;;;;18.40;65.10;;;;;;5054648;28;872;-71
2023/01/12 06:04:31;;;;;;;;;;;18.40;65.10;;;;;;5054830;28;1256;-71
2023/01/12 06:06:56;;;;;;;;;;;18.40;65.00;;;;;;5055400;28;1973;-69
2023/01/12 06:09:22;;;;;;;;;;;18.40;65.00;;;;;;5055412;28;927;-70
2023/01/12 06:14:31;;;;;;;;;;;18.40;64.90;;;;;;5056365;28;761;-70
2023/01/12 06:16:56;;;;;;;;;;;18.50;64.90;;;;;;5054827;28;1275;-72
2023/01/12 06:19:22;;;;;;;;;;;18.50;64.80;;;;;;5056849;28;846;-70
2023/01/12 06:21:47;;;;;;;;;;;18.50;64.80;;;;;;5057047;28;1379;-70
2023/01/12 06:24:13;;;;;;;;;;;18.50;64.80;;;;;;5055313;28;887;-70
2023/01/12 06:26:38;;;;;;;;;;;18.50;64.70;;;;;;5053414;28;1922;-70
2023/01/12 06:29:05;;;;;;;;;;;18.50;64.70;;;;;;5054753;28;820;-70
2023/01/12 06:31:31;;;;;;;;;;;18.50;64.70;;;;;;5055578;28;854;-70
2023/01/12 06:33:56;;;;;;;;;;;18.50;64.70;;;;;;5054890;28;931;-69
2023/01/12 06:36:22;;;;;;;;;;;18.50;64.70;;;;;;5054284;28;1296;-68
2023/01/12 06:38:47;;;;;;;;;;;18.50;64.70;;;;;;5054911;28;1204;-68
2023/01/12 06:44:01;;;;;;;;;;;18.50;64.80;;;;;;5063324;28;1199;-68
2023/01/12 06:46:27;;;;;;;;;;;18.50;64.80;;;;;;5055282;28;1902;-68
2023/01/12 06:48:58;;;;;;;;;;;18.50;64.80;;;;;;5047565;28;1162;-68
2023/01/12 06:51:24;;;;;;;;;;;18.50;64.90;;;;;;5053268;28;786;-69
2023/01/12 06:53:49;;;;;;;;;;;18.50;64.90;;;;;;5054787;28;1170;-70
2023/01/12 06:56:15;;;;;;;;;;;18.50;64.90;;;;;;5053798;28;1233;-68
2023/01/12 06:58:41;;;;;;;;;;;18.40;64.90;;;;;;5056383;28;864;-68
2023/01/12 07:01:06;;;;;;;;;;;18.40;64.90;;;;;;5057666;28;823;-68
2023/01/12 07:03:32;;;;;;;;;;;18.40;64.90;;;;;;5054044;28;960;-68
2023/01/12 07:05:58;;;;;;;;;;;18.40;64.90;;;;;;5054458;28;1571;-68
2023/01/12 07:08:23;;;;;;;;;;;18.40;65.70;;;;;;5054932;28;1973;-69
2023/01/12 07:10:49;;;;;;;;;;;18.40;65.00;;;;;;5054257;28;860;-70
2023/01/12 07:13:14;;;;;;;;;;;18.40;65.10;;;;;;5057433;28;1049;-71
2023/01/12 07:15:40;;;;;;;;;;;18.40;65.10;;;;;;5056735;28;1184;-70
2023/01/12 07:18:05;;;;;;;;;;;18.40;65.10;;;;;;5055240;28;891;-71
2023/01/12 07:20:32;;;;;;;;;;;18.40;65.10;;;;;;5054959;28;907;-70
2023/01/12 07:22:57;;;;;;;;;;;18.30;65.10;;;;;;5055172;28;1378;-69
2023/01/12 07:25:23;;;;;;;;;;;18.30;65.10;;;;;;5057475;28;1288;-71
2023/01/12 07:27:50;;;;;;;;;;;18.30;65.10;;;;;;5060901;28;1882;-71
2023/01/12 07:30:17;;;;;;;;;;;18.30;65.10;;;;;;5060394;28;850;-68
2023/01/12 07:32:42;;;;;;;;;;;18.30;65.10;;;;;;5058201;28;954;-71
2023/01/12 07:35:07;;;;;;;;;;;18.30;65.20;;;;;;5060043;28;1248;-71
2023/01/12 07:37:33;;;;;;;;;;;18.30;65.20;;;;;;5063283;28;1010;-70
2023/01/12 07:39:58;;;;;;;;;;;18.30;65.20;;;;;;5063753;28;867;-70
2023/01/12 07:42:24;;;;;;;;;;;18.30;65.20;;;;;;5063092;28;1598;-69
2023/01/12 07:44:49;;;;;;;;;;;18.30;65.30;;;;;;5054222;28;1022;-70
2023/01/12 07:47:15;;;;;;;;;;;18.30;65.20;;;;;;5052732;28;1969;-70
2023/01/12 07:49:40;;;;;;;;;;;18.30;65.30;;;;;;5052549;28;887;-69
2023/01/12 07:52:06;;;;;;;;;;;18.30;65.30;;;;;;5052178;28;864;-71
2023/01/12 07:54:34;;;;;;;;;;;18.30;65.30;;;;;;5054347;28;891;-67
2023/01/12 07:57:00;;;;;;;;;;;18.30;65.30;;;;;;5053553;28;1314;-70
2023/01/12 07:59:26;;;;;;;;;;;18.30;66.20;;;;;;5055317;28;875;-71
2023/01/12 08:01:53;;;;;;;;;;;18.30;65.40;;;;;;5052165;28;842;-71
2023/01/12 08:04:19;;;;;;;;;;;18.30;65.40;;;;;;5050868;28;1270;-70
2023/01/12 08:06:44;;;;;;;;;;;18.30;65.40;;;;;;5051361;28;1930;-70
2023/01/12 08:09:10;;;;;;;;;;;18.30;65.40;;;;;;5053771;28;866;-71
2023/01/12 08:11:36;;;;;;;;;;;18.30;65.40;;;;;;5053960;28;993;-71
2023/01/12 08:14:03;;;;;;;;;;;18.30;65.40;;;;;;5055393;28;918;-71
2023/01/12 08:16:30;;;;;;;;;;;18.30;65.40;;;;;;5056030;28;1229;-71
2023/01/12 08:19:00;;;;;;;;;;;18.30;65.40;;;;;;5056097;28;872;-71
2023/01/12 08:21:26;;;;;;;;;;;18.30;65.40;;;;;;5052428;28;892;-70
2023/01/12 08:23:53;;;;;;;;;;;18.30;65.30;;;;;;5052709;28;831;-70
2023/01/12 08:26:22;;;;;;;;;;;18.30;65.30;;;;;;5047443;28;1973;-71
2023/01/12 08:29:08;;;;;;;;;;;18.30;65.30;;;;;;5049071;28;844;-70
2023/01/12 08:31:33;;;;;;;;;;;18.30;65.20;;;;;;5051380;28;1056;-69
2023/01/12 08:33:59;;;;;;;;;;;18.30;65.20;;;;;;5046129;28;1339;-69
2023/01/12 08:36:24;;;;;;;;;;;18.30;65.20;;;;;;5054462;28;1285;-69
2023/01/12 08:38:50;;;;;;;;;;;18.30;65.10;;;;;;5053501;28;1005;-69
2023/01/12 08:41:36;;;;;;;;;;;18.40;65.20;;;;;;5052264;28;1070;-69
2023/01/12 08:44:03;;;;;;;;;;;18.40;65.90;;;;;;5051254;28;931;-69
2023/01/12 08:46:36;;;;;;;;;;;18.30;65.10;;;;;;5046951;28;1906;-69
2023/01/12 08:49:02;;;;;;;;;;;18.40;65.20;;;;;;5051447;28;942;-69
2023/01/12 08:51:28;;;;;;;;;;;18.30;65.10;;;;;;5050279;28;1457;-69
2023/01/12 08:53:53;;;;;;;;;;;18.30;65.20;;;;;;5042396;28;915;-69
2023/01/12 08:56:18;;;;;;;;;;;18.30;65.20;;;;;;5050344;28;1373;-69
2023/01/12 08:58:44;;;;;;;;;;;18.30;65.20;;;;;;5051179;28;883;-69
2023/01/12 09:01:10;;;;;;;;;;;18.30;65.30;;;;;;5049858;28;833;-69
2023/01/12 09:03:36;;;;;;;;;;;18.30;65.20;;;;;;5050608;28;1269;-69
2023/01/12 09:06:17;;;;;;;;;;;18.30;65.30;;;;;;5050098;28;1271;-70
2023/01/12 09:08:42;;;;;;;;;;;18.30;65.30;;;;;;5050590;28;871;-69
2023/01/12 09:11:08;;;;;;;;;;;18.30;65.20;;;;;;5048023;28;856;-69
2023/01/12 09:13:33;;;;;;;;;;;18.30;65.20;;;;;;5050951;28;1186;-69
2023/01/12 09:16:02;;;;;;;;;;;18.30;65.20;;;;;;5051018;28;1235;-69
2023/01/12 09:18:28;;;;;;;;;;;18.30;65.20;;;;;;5046514;28;872;-69
2023/01/12 09:21:00;;;;;;;;;;;18.30;65.10;;;;;;5052825;28;954;-69
2023/01/12 09:23:25;;;;;;;;;;;18.40;65.20;;;;;;5049525;28;892;-69
2023/01/12 09:25:51;;;;;;;;;;;18.40;65.10;;;;;;5051443;28;1260;-69
2023/01/12 09:28:16;;;;;;;;;;;18.40;65.10;;;;;;5051486;28;1993;-69
2023/01/12 09:30:42;;;;;;;;;;;18.40;65.10;;;;;;5052221;28;883;-70
2023/01/12 09:33:07;;;;;;;;;;;18.40;65.80;;;;;;5047478;28;939;-72
2023/01/12 09:35:32;;;;;;;;;;;18.40;65.00;;;;;;5051692;28;1285;-70
2023/01/12 09:37:58;;;;;;;;;;;18.40;65.00;;;;;;5051184;28;875;-70
2023/01/12 09:40:23;;;;;;;;;;;18.40;65.00;;;;;;5050955;28;971;-70
2023/01/12 09:48:20;;;;;;;;;;;18.40;64.90;;;;;;5051228;28;2001;-70
2023/01/12 09:51:06;;;;;;;;;;;18.40;64.90;;;;;;5047875;28;2211;-70
2023/01/12 09:53:33;;;;;;;;;;;18.40;64.90;;;;;;5045201;28;1794;-70
2023/01/12 09:56:01;;;;;;;;;;;18.40;64.90;;;;;;5050336;28;1357;-71
2023/01/12 09:58:29;;;;;;;;;;;18.40;64.90;;;;;;5051826;28;895;-70
2023/01/12 10:00:55;;;;;;;;;;;18.40;64.90;;;;;;5028736;28;1309;-70
2023/01/12 10:03:34;;;;;;;;;;;18.40;65.00;;;;;;5045170;28;1306;-70
2023/01/12 10:05:59;;;;;;;;;;;18.40;65.00;;;;;;5049027;28;1324;-70
2023/01/12 10:09:03;;;;;;;;;;;18.40;65.00;;;;;;5054040;28;2311;-70
2023/01/12 10:11:40;;;;;;;;;;;18.40;65.00;;;;;;5056093;28;1278;-70
2023/01/12 10:14:18;;;;;;;;;;;18.40;65.10;;;;;;5039245;28;883;-70
2023/01/12 10:17:09;;;;;;;;;;;18.40;65.10;;;;;;5051709;28;1199;-70
2023/01/12 10:19:40;;;;;;;;;;;18.40;65.10;;;;;;5050130;28;1124;-70
2023/01/12 10:22:37;;;;;;;;;;;18.40;65.10;;;;;;5049815;28;956;-70
2023/01/12 10:25:03;;;;;;;;;;;18.30;65.10;;;;;;5051903;28;871;-70
2023/01/12 10:27:28;;;;;;;;;;;18.30;65.10;;;;;;5054129;28;1978;-70
2023/01/12 10:29:53;;;;;;;;;;;18.30;65.20;;;;;;5048373;28;990;-70
2023/01/12 10:32:26;;;;;;;;;;;18.30;65.20;;;;;;5051950;28;1783;-70
2023/01/12 10:34:52;;;;;;;;;;;18.30;65.20;;;;;;5053602;28;1274;-70
2023/01/12 10:37:17;;;;;;;;;;;18.30;65.30;;;;;;5051526;28;1274;-70
2023/01/12 10:39:43;;;;;;;;;;;18.30;65.30;;;;;;5054723;28;989;-70
2023/01/12 10:45:21;;;;;;;;;;;18.30;65.30;;;;;;5053449;28;814;-70
2023/01/12 10:47:47;;;;;;;;;;;18.30;65.40;;;;;;5055281;28;1906;-72
2023/01/12 10:50:23;;;;;;;;;;;18.30;65.40;;;;;;5055050;28;856;-72
2023/01/12 10:52:49;;;;;;;;;;;18.30;65.40;;;;;;5048516;28;864;-70
2023/01/12 10:55:19;;;;;;;;;;;18.30;65.40;;;;;;5051276;28;1541;-70
2023/01/12 10:57:44;;;;;;;;;;;18.30;65.50;;;;;;5054045;28;872;-70
2023/01/12 11:00:15;;;;;;;;;;;18.30;65.50;;;;;;5048902;28;914;-70
2023/01/12 11:02:41;;;;;;;;;;;18.20;65.50;;;;;;5056416;28;883;-71
2023/01/12 11:05:24;;;;;;;;;;;18.20;65.50;;;;;;5054409;28;1312;-70
2023/01/12 11:07:50;;;;;;;;;;;18.20;65.50;;;;;;5056189;28;1957;-70
2023/01/12 11:10:19;;;;;;;;;;;18.20;65.60;;;;;;5055264;28;895;-70
2023/01/12 11:12:52;;;;;;;;;;;18.20;65.60;;;;;;5048642;28;1455;-70
2023/01/12 11:15:17;;;;;;;;;;;18.20;65.60;;;;;;5045414;28;1664;-70
2023/01/12 11:18:01;;;;;;;;;;;18.20;65.70;;;;;;5053934;28;828;-72
2023/01/12 11:20:33;;;;;;;;;;;18.20;65.70;;;;;;5053511;28;828;-72
2023/01/12 11:23:00;;;;;;;;;;;18.20;65.70;;;;;;5053270;28;1189;-70
2023/01/12 11:25:26;;;;;;;;;;;18.20;65.80;;;;;;5050035;28;1248;-72
2023/01/12 11:27:52;;;;;;;;;;;18.20;65.70;;;;;;5051006;28;1895;-72
2023/01/12 11:30:19;;;;;;;;;;;18.20;65.80;;;;;;5054545;28;842;-71
2023/01/12 11:32:47;;;;;;;;;;;18.20;65.80;;;;;;5053990;28;939;-72
2023/01/12 11:35:15;;;;;;;;;;;18.20;65.80;;;;;;5048684;28;1883;-72
2023/01/12 11:37:41;;;;;;;;;;;18.20;65.80;;;;;;5052567;28;1844;-72
2023/01/12 11:40:12;;;;;;;;;;;18.20;65.90;;;;;;5053625;28;1340;-72
2023/01/12 11:45:27;;;;;;;;;;;18.20;65.90;;;;;;5050342;28;1291;-70
2023/01/12 11:48:01;;;;;;;;;;;18.20;65.90;;;;;;5047770;28;2047;-69
2023/01/12 11:50:27;;;;;;;;;;;18.20;65.90;;;;;;5055008;28;894;-69
2023/01/12 11:52:53;;;;;;;;;;;18.20;65.90;;;;;;5052438;28;898;-70
2023/01/12 11:55:23;;;;;;;;;;;18.20;65.80;;;;;;5052051;28;1803;-70
2023/01/12 11:57:51;;;;;;;;;;;18.20;65.70;;;;;;5048393;28;887;-70
2023/01/12 12:00:23;;;;;;;;;;;18.20;65.60;;;;;;5053840;28;831;-69
2023/01/12 12:02:56;;;;;;;;;;;18.30;65.60;;;;;;5051589;28;1282;-70
2023/01/12 12:05:54;;;;;;;;;;;18.30;65.50;;;;;;5056207;28;1361;-70
2023/01/12 12:08:19;;;;;;;;;;;18.30;65.40;;;;;;5051307;28;1918;-70
2023/01/12 12:10:55;;;;;;;;;;;18.30;65.30;;;;;;5053495;28;848;-70
2023/01/12 12:13:20;;;;;;;;;;;18.30;65.20;;;;;;5050740;28;823;-70
2023/01/12 12:16:05;;;;;;;;;;;18.40;65.10;;;;;;5052762;28;1321;-71
2023/01/12 12:18:45;;;;;;;;;;;18.40;65.10;;;;;;5053020;28;986;-71
2023/01/12 12:21:28;;;;;;;;;;;18.40;64.90;;;;;;5052098;28;1451;-70
2023/01/12 12:24:05;;;;;;;;;;;18.50;64.90;;;;;;5052971;28;857;-70
2023/01/12 12:26:34;;;;;;;;;;;18.50;64.80;;;;;;5051925;28;2249;-72
2023/01/12 12:29:14;;;;;;;;;;;18.50;64.80;;;;;;5051168;28;1365;-72
2023/01/12 12:31:54;;;;;;;;;;;18.50;64.70;;;;;;5045811;28;1368;-71
2023/01/12 12:34:30;;;;;;;;;;;18.50;64.70;;;;;;5052610;28;1398;-72
2023/01/12 12:37:04;;;;;;;;;;;18.50;64.60;;;;;;5040478;28;1451;-71
2023/01/12 12:39:53;;;;;;;;;;;18.50;64.50;;;;;;5051163;28;1355;-71
2023/01/12 12:45:28;;;;;;;;;;;18.60;64.50;;;;;;5051152;28;1402;-73
2023/01/12 12:48:01;;;;;;;;;;;18.60;64.50;;;;;;5052799;28;1906;-74
2023/01/12 12:50:31;;;;;;;;;;;18.60;64.50;;;;;;5048071;28;844;-71
2023/01/12 12:53:12;;;;;;;;;;;18.60;64.50;;;;;;5059756;28;836;-71
2023/01/12 12:55:37;;;;;;;;;;;18.60;64.50;;;;;;5053950;28;1233;-70
2023/01/12 12:58:04;;;;;;;;;;;18.60;64.50;;;;;;5056203;28;1352;-69
2023/01/12 13:00:39;;;;;;;;;;;18.60;64.50;;;;;;5047697;28;1447;-70
2023/01/12 13:03:04;;;;;;;;;;;18.50;64.40;;;;;;5045765;28;895;-70
2023/01/12 13:05:43;;;;;;;;;;;18.60;64.50;;;;;;5047530;28;1475;-70
2023/01/12 13:08:21;;;;;;;;;;;18.50;64.50;;;;;;5051630;28;1974;-70
2023/01/12 13:10:49;;;;;;;;;;;18.50;64.50;;;;;;5050269;28;2020;-70
2023/01/12 13:13:25;;;;;;;;;;;18.50;64.50;;;;;;5038407;28;1288;-69
2023/01/12 13:15:58;;;;;;;;;;;18.50;64.50;;;;;;5050812;28;1354;-69
2023/01/12 13:18:39;;;;;;;;;;;18.50;64.60;;;;;;5043546;28;1311;-69
2023/01/12 13:21:08;;;;;;;;;;;18.50;64.60;;;;;;5052377;28;1294;-70
2023/01/12 13:23:44;;;;;;;;;;;18.50;64.70;;;;;;5046626;28;1410;-70
2023/01/12 13:26:35;;;;;;;;;;;18.50;64.70;;;;;;5046357;28;1293;-70
2023/01/12 13:29:19;;;;;;;;;;;18.50;64.70;;;;;;5051911;28;1010;-70
2023/01/12 13:31:44;;;;;;;;;;;18.50;64.80;;;;;;5050747;28;1032;-69
2023/01/12 13:34:45;;;;;;;;;;;18.50;64.80;;;;;;5053347;28;829;-70
2023/01/12 13:37:16;;;;;;;;;;;18.40;64.80;;;;;;5050938;28;1356;-70
2023/01/12 13:39:43;;;;;;;;;;;18.50;64.90;;;;;;5047898;28;1022;-70
2023/01/12 13:44:56;;;;;;;;;;;18.40;64.90;;;;;;5046047;28;2360;-69
2023/01/12 13:47:23;;;;;;;;;;;18.40;65.00;;;;;;5046857;28;2030;-69
2023/01/12 13:49:50;;;;;;;;;;;18.40;65.00;;;;;;5055069;28;1421;-68
2023/01/12 13:52:18;;;;;;;;;;;18.40;65.00;;;;;;5050700;28;1553;-68
2023/01/12 13:54:49;;;;;;;;;;;18.40;65.00;;;;;;5052961;28;938;-69
2023/01/12 13:57:22;;;;;;;;;;;18.40;65.10;;;;;;5046106;28;1274;-68
2023/01/12 13:59:57;;;;;;;;;;;18.40;65.10;;;;;;5053364;28;868;-68
2023/01/12 14:02:23;;;;;;;;;;;18.40;65.10;;;;;;5054610;28;1736;-71
2023/01/12 14:04:57;;;;;;;;;;;18.40;65.20;;;;;;5059988;28;1286;-68
2023/01/12 14:07:31;;;;;;;;;;;18.30;65.20;;;;;;5048234;22;4176;-69
2023/01/12 14:10:03;;;;;;;;;;;18.30;65.20;;;;;;5020401;28;1421;-70
2023/01/12 14:12:47;;;;;;;;;;;18.30;65.20;;;;;;5020349;28;1355;-70
2023/01/12 14:18:16;;;;;;;;;;;18.30;65.30;;;;;;5043458;28;833;-70
2023/01/12 14:20:46;;;;;;;;;;;18.30;65.30;;;;;;5057008;28;884;-70
2023/01/12 14:23:15;;;;;;;;;;;18.30;65.40;;;;;;5047464;28;1406;-70
2023/01/12 14:25:41;;;;;;;;;;;18.30;65.40;;;;;;5043273;28;2087;-70
2023/01/12 14:28:19;;;;;;;;;;;18.30;65.50;;;;;;5040474;28;1945;-70
2023/01/12 14:30:46;;;;;;;;;;;18.30;65.50;;;;;;5041064;28;1257;-68
2023/01/12 14:33:15;;;;;;;;;;;18.30;65.50;;;;;;5058408;28;894;-68
2023/01/12 14:35:43;;;;;;;;;;;18.30;65.50;;;;;;5058921;28;1293;-68
2023/01/12 14:38:12;;;;;;;;;;;18.30;65.60;;;;;;5055415;28;1369;-72
2023/01/12 14:40:37;;;;;;;;;;;18.20;65.50;;;;;;5043845;28;868;-69
2023/01/12 14:48:42;;;;;;;;;;;18.20;65.60;;;;;;5053901;28;1977;-71
2023/01/12 14:51:18;;;;;;;;;;;18.20;65.70;;;;;;5042291;28;815;-69
2023/01/12 14:53:44;;;;;;;;;;;18.20;65.70;;;;;;5056477;28;1655;-70
2023/01/12 14:56:10;;;;;;;;;;;18.20;65.70;;;;;;5053289;28;1921;-69
2023/01/12 14:58:35;;;;;;;;;;;18.20;65.70;;;;;;5042082;28;844;-69
2023/01/12 15:01:01;;;;;;;;;;;18.20;65.70;;;;;;5039637;28;906;-68
2023/01/12 15:03:26;;;;;;;;;;;18.20;65.70;;;;;;5043326;28;1337;-68
2023/01/12 15:05:54;;;;;;;;;;;18.20;65.60;;;;;;5056721;28;1342;-69
2023/01/12 15:08:25;;;;;;;;;;;18.30;65.60;;;;;;5055378;28;1934;-68
2023/01/12 15:10:54;;;;;;;;;;;18.30;65.50;;;;;;5043953;28;753;-67
2023/01/12 15:13:31;;;;;;;;;;;18.30;65.40;;;;;;5043138;28;915;-68
2023/01/12 15:26:53;;;;;;;;;;;18.50;65.00;;;;;;5038755;28;1891;-68
2023/01/12 15:29:19;;;;;;;;;;;18.50;65.00;;;;;;5055912;28;1320;-68
2023/01/12 15:31:44;;;;;;;;;;;18.50;64.90;;;;;;5041533;28;834;-68
2023/01/12 15:34:10;;;;;;;;;;;18.50;64.80;;;;;;5056365;28;1386;-68
2023/01/12 15:36:35;;;;;;;;;;;18.50;64.80;;;;;;5054081;28;1592;-68
2023/01/12 15:39:01;;;;;;;;;;;18.50;64.80;;;;;;5039492;28;1026;-68
2023/01/12 15:44:11;;;;;;;;;;;18.50;64.70;;;;;;5054224;28;833;-69
2023/01/12 15:46:37;;;;;;;;;;;18.50;64.60;;;;;;5054361;28;1898;-69
2023/01/12 15:49:02;;;;;;;;;;;18.50;64.50;;;;;;5037992;28;883;-70
2023/01/12 15:51:28;;;;;;;;;;;18.50;64.50;;;;;;5038431;28;806;-69
2023/01/12 15:53:53;;;;;;;;;;;18.60;64.50;;;;;;5038803;28;967;-68
2023/01/12 15:56:18;;;;;;;;;;;18.60;64.50;;;;;;5038221;28;1229;-69